sensor_id;sensor_type;location;lat;lon;timestamp;P1;durP1;ratioP1;P2;durP2;ratioP2
46266;SDS011;31998;48.798;15.066;2022-12-29T00:01:51;5.73;;;3.73;;
46266;SDS011;31998;48.798;15.066;2022-12-29T00:04:17;4.00;;;2.57;;
46266;SDS011;31998;48.798;15.066;2022-12-29T00:06:43;2.70;;;2.27;;
46266;SDS011;31998;48.798;15.066;2022-12-29T00:09:12;5.20;;;4.53;;
46266;SDS011;31998;48.798;15.066;2022-12-29T00:11:39;3.10;;;2.80;;
46266;SDS011;31998;48.798;15.066;2022-12-29T00:14:05;6.47;;;4.10;;
46266;SDS011;31998;48.798;15.066;2022-12-29T00:16:51;4.40;;;2.83;;
46266;SDS011;31998;48.798;15.066;2022-12-29T00:19:17;2.20;;;2.10;;
46266;SDS011;31998;48.798;15.066;2022-12-29T00:22:01;3.07;;;2.77;;
46266;SDS011;31998;48.798;15.066;2022-12-29T00:24:45;9.70;;;5.10;;
46266;SDS011;31998;48.798;15.066;2022-12-29T00:27:29;3.97;;;3.00;;
46266;SDS011;31998;48.798;15.066;2022-12-29T00:30:15;4.67;;;3.17;;
46266;SDS011;31998;48.798;15.066;2022-12-29T00:36:02;8.80;;;5.17;;
46266;SDS011;31998;48.798;15.066;2022-12-29T00:38:41;21.47;;;8.50;;
46266;SDS011;31998;48.798;15.066;2022-12-29T00:41:30;19.23;;;8.33;;
46266;SDS011;31998;48.798;15.066;2022-12-29T00:44:14;27.17;;;11.60;;
46266;SDS011;31998;48.798;15.066;2022-12-29T00:46:40;50.27;;;17.50;;
46266;SDS011;31998;48.798;15.066;2022-12-29T00:49:07;31.20;;;12.00;;
46266;SDS011;31998;48.798;15.066;2022-12-29T00:51:53;37.80;;;14.67;;
46266;SDS011;31998;48.798;15.066;2022-12-29T00:54:19;32.00;;;13.90;;
46266;SDS011;31998;48.798;15.066;2022-12-29T00:56:46;32.83;;;13.33;;
46266;SDS011;31998;48.798;15.066;2022-12-29T00:59:13;29.50;;;12.97;;
46266;SDS011;31998;48.798;15.066;2022-12-29T01:01:41;29.10;;;12.93;;
46266;SDS011;31998;48.798;15.066;2022-12-29T01:04:07;28.13;;;12.67;;
46266;SDS011;31998;48.798;15.066;2022-12-29T01:06:33;31.10;;;12.97;;
46266;SDS011;31998;48.798;15.066;2022-12-29T01:09:01;22.40;;;9.83;;
46266;SDS011;31998;48.798;15.066;2022-12-29T01:11:45;20.00;;;8.13;;
46266;SDS011;31998;48.798;15.066;2022-12-29T01:14:11;18.70;;;9.13;;
46266;SDS011;31998;48.798;15.066;2022-12-29T01:16:36;20.63;;;9.30;;
46266;SDS011;31998;48.798;15.066;2022-12-29T01:19:02;19.23;;;7.97;;
46266;SDS011;31998;48.798;15.066;2022-12-29T01:21:28;22.97;;;11.23;;
46266;SDS011;31998;48.798;15.066;2022-12-29T01:23:54;24.93;;;12.07;;
46266;SDS011;31998;48.798;15.066;2022-12-29T01:26:19;28.33;;;13.03;;
46266;SDS011;31998;48.798;15.066;2022-12-29T01:28:45;31.90;;;13.13;;
46266;SDS011;31998;48.798;15.066;2022-12-29T01:31:11;13.93;;;6.80;;
46266;SDS011;31998;48.798;15.066;2022-12-29T01:33:38;12.17;;;5.70;;
46266;SDS011;31998;48.798;15.066;2022-12-29T01:36:05;10.37;;;6.20;;
46266;SDS011;31998;48.798;15.066;2022-12-29T01:38:32;11.60;;;6.43;;
46266;SDS011;31998;48.798;15.066;2022-12-29T01:40:58;6.57;;;5.20;;
46266;SDS011;31998;48.798;15.066;2022-12-29T01:43:40;13.07;;;6.03;;
46266;SDS011;31998;48.798;15.066;2022-12-29T01:46:23;6.47;;;4.40;;
46266;SDS011;31998;48.798;15.066;2022-12-29T01:48:55;8.50;;;4.30;;
46266;SDS011;31998;48.798;15.066;2022-12-29T01:51:48;3.43;;;3.00;;
46266;SDS011;31998;48.798;15.066;2022-12-29T01:54:19;7.17;;;5.07;;
46266;SDS011;31998;48.798;15.066;2022-12-29T01:56:51;3.93;;;3.20;;
46266;SDS011;31998;48.798;15.066;2022-12-29T01:59:21;4.10;;;3.60;;
46266;SDS011;31998;48.798;15.066;2022-12-29T02:01:51;4.70;;;4.07;;
46266;SDS011;31998;48.798;15.066;2022-12-29T02:04:16;3.47;;;3.17;;
46266;SDS011;31998;48.798;15.066;2022-12-29T02:07:00;3.10;;;2.90;;
46266;SDS011;31998;48.798;15.066;2022-12-29T02:09:29;2.50;;;2.37;;
46266;SDS011;31998;48.798;15.066;2022-12-29T02:11:55;1.90;;;1.80;;
46266;SDS011;31998;48.798;15.066;2022-12-29T02:14:23;1.43;;;1.40;;
46266;SDS011;31998;48.798;15.066;2022-12-29T02:22:30;2.47;;;2.27;;
46266;SDS011;31998;48.798;15.066;2022-12-29T02:25:11;2.00;;;1.87;;
46266;SDS011;31998;48.798;15.066;2022-12-29T02:35:55;1.80;;;1.70;;
46266;SDS011;31998;48.798;15.066;2022-12-29T02:41:32;1.07;;;1.07;;
46266;SDS011;31998;48.798;15.066;2022-12-29T02:44:11;1.37;;;1.27;;
46266;SDS011;31998;48.798;15.066;2022-12-29T02:46:47;1.43;;;1.33;;
46266;SDS011;31998;48.798;15.066;2022-12-29T02:49:30;0.63;;;0.63;;
46266;SDS011;31998;48.798;15.066;2022-12-29T02:52:13;1.13;;;1.13;;
46266;SDS011;31998;48.798;15.066;2022-12-29T02:54:43;1.00;;;1.00;;
46266;SDS011;31998;48.798;15.066;2022-12-29T02:57:14;1.30;;;1.30;;
46266;SDS011;31998;48.798;15.066;2022-12-29T02:59:55;2.20;;;1.27;;
46266;SDS011;31998;48.798;15.066;2022-12-29T03:02:29;0.77;;;0.77;;
46266;SDS011;31998;48.798;15.066;2022-12-29T03:10:33;1.30;;;1.30;;
46266;SDS011;31998;48.798;15.066;2022-12-29T03:16:37;0.80;;;0.80;;
46266;SDS011;31998;48.798;15.066;2022-12-29T03:19:10;1.17;;;1.17;;
46266;SDS011;31998;48.798;15.066;2022-12-29T03:21:50;1.23;;;1.23;;
46266;SDS011;31998;48.798;15.066;2022-12-29T03:24:40;1.33;;;0.90;;
46266;SDS011;31998;48.798;15.066;2022-12-29T03:27:13;1.30;;;1.20;;
46266;SDS011;31998;48.798;15.066;2022-12-29T03:29:44;1.43;;;1.43;;
46266;SDS011;31998;48.798;15.066;2022-12-29T03:32:17;0.70;;;0.70;;
46266;SDS011;31998;48.798;15.066;2022-12-29T03:34:45;1.00;;;1.00;;
46266;SDS011;31998;48.798;15.066;2022-12-29T03:37:13;0.80;;;0.80;;
46266;SDS011;31998;48.798;15.066;2022-12-29T03:39:41;0.70;;;0.70;;
46266;SDS011;31998;48.798;15.066;2022-12-29T03:42:09;0.97;;;0.97;;
46266;SDS011;31998;48.798;15.066;2022-12-29T03:44:41;2.50;;;1.17;;
46266;SDS011;31998;48.798;15.066;2022-12-29T03:47:09;1.00;;;1.00;;
46266;SDS011;31998;48.798;15.066;2022-12-29T03:49:36;1.03;;;0.93;;
46266;SDS011;31998;48.798;15.066;2022-12-29T03:52:02;1.10;;;1.00;;
46266;SDS011;31998;48.798;15.066;2022-12-29T03:54:28;0.97;;;0.93;;
46266;SDS011;31998;48.798;15.066;2022-12-29T03:56:54;1.50;;;1.40;;
46266;SDS011;31998;48.798;15.066;2022-12-29T03:59:19;1.60;;;0.80;;
46266;SDS011;31998;48.798;15.066;2022-12-29T04:01:45;1.00;;;1.00;;
46266;SDS011;31998;48.798;15.066;2022-12-29T04:04:11;1.00;;;0.90;;
46266;SDS011;31998;48.798;15.066;2022-12-29T04:06:36;0.80;;;0.80;;
46266;SDS011;31998;48.798;15.066;2022-12-29T04:09:02;0.70;;;0.70;;
46266;SDS011;31998;48.798;15.066;2022-12-29T04:11:27;0.80;;;0.80;;
46266;SDS011;31998;48.798;15.066;2022-12-29T04:13:53;1.40;;;1.03;;
46266;SDS011;31998;48.798;15.066;2022-12-29T04:16:18;1.10;;;1.00;;
46266;SDS011;31998;48.798;15.066;2022-12-29T04:18:44;0.70;;;0.70;;
46266;SDS011;31998;48.798;15.066;2022-12-29T04:21:09;0.90;;;0.90;;
46266;SDS011;31998;48.798;15.066;2022-12-29T04:23:36;1.00;;;1.00;;
46266;SDS011;31998;48.798;15.066;2022-12-29T04:26:02;1.07;;;1.07;;
46266;SDS011;31998;48.798;15.066;2022-12-29T04:28:29;1.20;;;0.87;;
46266;SDS011;31998;48.798;15.066;2022-12-29T04:30:54;3.87;;;0.70;;
46266;SDS011;31998;48.798;15.066;2022-12-29T04:33:20;1.00;;;1.00;;
46266;SDS011;31998;48.798;15.066;2022-12-29T04:35:46;1.30;;;0.93;;
46266;SDS011;31998;48.798;15.066;2022-12-29T04:38:12;0.80;;;0.80;;
46266;SDS011;31998;48.798;15.066;2022-12-29T04:40:39;0.90;;;0.90;;
46266;SDS011;31998;48.798;15.066;2022-12-29T04:43:05;0.70;;;0.70;;
46266;SDS011;31998;48.798;15.066;2022-12-29T04:45:31;0.90;;;0.90;;
46266;SDS011;31998;48.798;15.066;2022-12-29T04:47:56;1.27;;;1.10;;
46266;SDS011;31998;48.798;15.066;2022-12-29T04:50:22;0.60;;;0.60;;
46266;SDS011;31998;48.798;15.066;2022-12-29T04:52:47;0.83;;;0.83;;
46266;SDS011;31998;48.798;15.066;2022-12-29T04:55:13;0.80;;;0.80;;
46266;SDS011;31998;48.798;15.066;2022-12-29T04:57:38;0.90;;;0.90;;
46266;SDS011;31998;48.798;15.066;2022-12-29T05:00:04;0.80;;;0.80;;
46266;SDS011;31998;48.798;15.066;2022-12-29T05:02:30;0.97;;;0.97;;
46266;SDS011;31998;48.798;15.066;2022-12-29T05:04:56;0.70;;;0.70;;
46266;SDS011;31998;48.798;15.066;2022-12-29T05:07:21;0.83;;;0.83;;
46266;SDS011;31998;48.798;15.066;2022-12-29T05:09:46;0.80;;;0.80;;
46266;SDS011;31998;48.798;15.066;2022-12-29T05:12:12;0.67;;;0.67;;
46266;SDS011;31998;48.798;15.066;2022-12-29T05:14:38;0.73;;;0.73;;
46266;SDS011;31998;48.798;15.066;2022-12-29T05:17:03;0.60;;;0.60;;
46266;SDS011;31998;48.798;15.066;2022-12-29T05:19:29;2.00;;;0.60;;
46266;SDS011;31998;48.798;15.066;2022-12-29T05:21:54;1.10;;;1.00;;
46266;SDS011;31998;48.798;15.066;2022-12-29T05:24:20;0.83;;;0.80;;
46266;SDS011;31998;48.798;15.066;2022-12-29T05:26:48;0.67;;;0.67;;
46266;SDS011;31998;48.798;15.066;2022-12-29T05:29:16;1.33;;;1.23;;
46266;SDS011;31998;48.798;15.066;2022-12-29T05:31:41;0.97;;;0.80;;
46266;SDS011;31998;48.798;15.066;2022-12-29T05:34:06;0.60;;;0.60;;
46266;SDS011;31998;48.798;15.066;2022-12-29T05:36:33;0.73;;;0.73;;
46266;SDS011;31998;48.798;15.066;2022-12-29T05:38:59;1.23;;;0.60;;
46266;SDS011;31998;48.798;15.066;2022-12-29T05:41:24;0.90;;;0.90;;
46266;SDS011;31998;48.798;15.066;2022-12-29T05:43:50;0.73;;;0.73;;
46266;SDS011;31998;48.798;15.066;2022-12-29T05:46:16;2.83;;;0.70;;
46266;SDS011;31998;48.798;15.066;2022-12-29T05:48:41;1.07;;;1.00;;
46266;SDS011;31998;48.798;15.066;2022-12-29T05:51:07;0.47;;;0.47;;
46266;SDS011;31998;48.798;15.066;2022-12-29T05:53:32;0.67;;;0.67;;
46266;SDS011;31998;48.798;15.066;2022-12-29T05:55:57;0.70;;;0.70;;
46266;SDS011;31998;48.798;15.066;2022-12-29T05:58:23;0.80;;;0.80;;
46266;SDS011;31998;48.798;15.066;2022-12-29T06:00:48;1.20;;;1.10;;
46266;SDS011;31998;48.798;15.066;2022-12-29T06:03:14;0.60;;;0.60;;
46266;SDS011;31998;48.798;15.066;2022-12-29T06:05:39;1.10;;;1.00;;
46266;SDS011;31998;48.798;15.066;2022-12-29T06:08:04;0.80;;;0.80;;
46266;SDS011;31998;48.798;15.066;2022-12-29T06:10:30;1.60;;;0.80;;
46266;SDS011;31998;48.798;15.066;2022-12-29T06:12:56;0.97;;;0.83;;
46266;SDS011;31998;48.798;15.066;2022-12-29T06:15:21;1.03;;;1.03;;
46266;SDS011;31998;48.798;15.066;2022-12-29T06:17:47;0.70;;;0.70;;
46266;SDS011;31998;48.798;15.066;2022-12-29T06:20:12;1.30;;;1.30;;
46266;SDS011;31998;48.798;15.066;2022-12-29T06:22:38;1.10;;;1.10;;
46266;SDS011;31998;48.798;15.066;2022-12-29T06:25:03;2.17;;;1.40;;
46266;SDS011;31998;48.798;15.066;2022-12-29T06:27:30;0.60;;;0.60;;
46266;SDS011;31998;48.798;15.066;2022-12-29T06:29:56;1.43;;;0.97;;
46266;SDS011;31998;48.798;15.066;2022-12-29T06:32:21;1.23;;;1.07;;
46266;SDS011;31998;48.798;15.066;2022-12-29T06:34:47;0.83;;;0.83;;
46266;SDS011;31998;48.798;15.066;2022-12-29T06:37:12;3.43;;;0.87;;
46266;SDS011;31998;48.798;15.066;2022-12-29T06:39:38;3.00;;;1.03;;
46266;SDS011;31998;48.798;15.066;2022-12-29T06:42:03;1.33;;;1.13;;
46266;SDS011;31998;48.798;15.066;2022-12-29T06:44:29;0.87;;;0.87;;
46266;SDS011;31998;48.798;15.066;2022-12-29T06:46:54;0.73;;;0.73;;
46266;SDS011;31998;48.798;15.066;2022-12-29T06:49:20;0.93;;;0.93;;
46266;SDS011;31998;48.798;15.066;2022-12-29T06:51:46;1.20;;;1.20;;
46266;SDS011;31998;48.798;15.066;2022-12-29T06:54:12;0.70;;;0.70;;
46266;SDS011;31998;48.798;15.066;2022-12-29T06:56:37;1.00;;;0.90;;
46266;SDS011;31998;48.798;15.066;2022-12-29T06:59:03;1.10;;;1.10;;
46266;SDS011;31998;48.798;15.066;2022-12-29T07:01:28;1.43;;;1.33;;
46266;SDS011;31998;48.798;15.066;2022-12-29T07:03:54;1.17;;;1.17;;
46266;SDS011;31998;48.798;15.066;2022-12-29T07:06:20;1.80;;;1.60;;
46266;SDS011;31998;48.798;15.066;2022-12-29T07:08:45;3.30;;;1.50;;
46266;SDS011;31998;48.798;15.066;2022-12-29T07:11:11;1.60;;;1.53;;
46266;SDS011;31998;48.798;15.066;2022-12-29T07:13:36;1.57;;;1.40;;
46266;SDS011;31998;48.798;15.066;2022-12-29T07:16:08;1.87;;;1.77;;
46266;SDS011;31998;48.798;15.066;2022-12-29T07:18:37;1.67;;;1.60;;
46266;SDS011;31998;48.798;15.066;2022-12-29T07:21:02;1.70;;;1.60;;
46266;SDS011;31998;48.798;15.066;2022-12-29T07:23:28;2.80;;;2.60;;
46266;SDS011;31998;48.798;15.066;2022-12-29T07:26:00;2.60;;;2.50;;
46266;SDS011;31998;48.798;15.066;2022-12-29T07:28:28;3.70;;;2.60;;
46266;SDS011;31998;48.798;15.066;2022-12-29T07:30:53;2.97;;;2.77;;
46266;SDS011;31998;48.798;15.066;2022-12-29T07:33:19;3.07;;;2.87;;
46266;SDS011;31998;48.798;15.066;2022-12-29T07:35:44;2.83;;;2.57;;
46266;SDS011;31998;48.798;15.066;2022-12-29T07:38:10;1.80;;;1.70;;
46266;SDS011;31998;48.798;15.066;2022-12-29T07:40:35;2.43;;;2.23;;
46266;SDS011;31998;48.798;15.066;2022-12-29T07:43:01;2.80;;;2.60;;
46266;SDS011;31998;48.798;15.066;2022-12-29T07:45:26;3.80;;;3.50;;
46266;SDS011;31998;48.798;15.066;2022-12-29T07:47:52;3.33;;;3.13;;
46266;SDS011;31998;48.798;15.066;2022-12-29T07:50:17;4.07;;;3.43;;
46266;SDS011;31998;48.798;15.066;2022-12-29T07:52:43;4.20;;;2.90;;
46266;SDS011;31998;48.798;15.066;2022-12-29T07:55:11;3.90;;;2.80;;
46266;SDS011;31998;48.798;15.066;2022-12-29T07:57:36;2.70;;;2.53;;
46266;SDS011;31998;48.798;15.066;2022-12-29T08:00:02;2.83;;;2.70;;
46266;SDS011;31998;48.798;15.066;2022-12-29T08:02:29;2.10;;;2.00;;
46266;SDS011;31998;48.798;15.066;2022-12-29T08:04:54;1.77;;;1.67;;
46266;SDS011;31998;48.798;15.066;2022-12-29T08:07:22;1.57;;;1.47;;
46266;SDS011;31998;48.798;15.066;2022-12-29T08:09:48;2.67;;;1.87;;
46266;SDS011;31998;48.798;15.066;2022-12-29T08:12:13;3.43;;;1.30;;
46266;SDS011;31998;48.798;15.066;2022-12-29T08:14:39;1.57;;;1.43;;
46266;SDS011;31998;48.798;15.066;2022-12-29T08:17:04;1.17;;;1.07;;
46266;SDS011;31998;48.798;15.066;2022-12-29T08:19:30;1.37;;;1.37;;
46266;SDS011;31998;48.798;15.066;2022-12-29T08:21:55;0.77;;;0.77;;
46266;SDS011;31998;48.798;15.066;2022-12-29T08:24:23;1.33;;;1.00;;
46266;SDS011;31998;48.798;15.066;2022-12-29T08:26:49;0.90;;;0.90;;
46266;SDS011;31998;48.798;15.066;2022-12-29T08:29:17;0.90;;;0.90;;
46266;SDS011;31998;48.798;15.066;2022-12-29T08:31:42;0.80;;;0.70;;
46266;SDS011;31998;48.798;15.066;2022-12-29T08:34:13;0.63;;;0.63;;
46266;SDS011;31998;48.798;15.066;2022-12-29T08:36:41;1.77;;;1.10;;
46266;SDS011;31998;48.798;15.066;2022-12-29T08:39:09;1.03;;;0.70;;
46266;SDS011;31998;48.798;15.066;2022-12-29T08:41:35;0.77;;;0.77;;
46266;SDS011;31998;48.798;15.066;2022-12-29T08:44:00;0.90;;;0.90;;
46266;SDS011;31998;48.798;15.066;2022-12-29T08:46:26;2.10;;;2.00;;
46266;SDS011;31998;48.798;15.066;2022-12-29T08:48:54;2.27;;;2.17;;
46266;SDS011;31998;48.798;15.066;2022-12-29T08:51:19;1.67;;;1.57;;
46266;SDS011;31998;48.798;15.066;2022-12-29T08:53:45;1.97;;;1.87;;
46266;SDS011;31998;48.798;15.066;2022-12-29T08:56:10;3.93;;;2.13;;
46266;SDS011;31998;48.798;15.066;2022-12-29T08:58:36;3.67;;;3.23;;
46266;SDS011;31998;48.798;15.066;2022-12-29T09:01:02;5.23;;;4.03;;
46266;SDS011;31998;48.798;15.066;2022-12-29T09:03:29;6.40;;;5.07;;
46266;SDS011;31998;48.798;15.066;2022-12-29T09:05:55;8.67;;;5.40;;
46266;SDS011;31998;48.798;15.066;2022-12-29T09:08:21;6.07;;;5.57;;
46266;SDS011;31998;48.798;15.066;2022-12-29T09:10:47;4.73;;;4.20;;
46266;SDS011;31998;48.798;15.066;2022-12-29T09:13:13;3.70;;;3.40;;
46266;SDS011;31998;48.798;15.066;2022-12-29T09:15:39;4.43;;;3.03;;
46266;SDS011;31998;48.798;15.066;2022-12-29T09:18:05;2.60;;;2.40;;
46266;SDS011;31998;48.798;15.066;2022-12-29T09:20:33;3.10;;;3.00;;
46266;SDS011;31998;48.798;15.066;2022-12-29T09:22:59;5.60;;;5.17;;
46266;SDS011;31998;48.798;15.066;2022-12-29T09:25:25;5.73;;;5.00;;
46266;SDS011;31998;48.798;15.066;2022-12-29T09:27:51;7.90;;;6.40;;
46266;SDS011;31998;48.798;15.066;2022-12-29T09:30:21;7.93;;;6.10;;
46266;SDS011;31998;48.798;15.066;2022-12-29T09:32:48;6.00;;;4.90;;
46266;SDS011;31998;48.798;15.066;2022-12-29T09:35:14;5.53;;;4.90;;
46266;SDS011;31998;48.798;15.066;2022-12-29T09:37:40;7.43;;;5.70;;
46266;SDS011;31998;48.798;15.066;2022-12-29T09:40:06;8.53;;;4.50;;
46266;SDS011;31998;48.798;15.066;2022-12-29T09:42:50;10.70;;;6.67;;
46266;SDS011;31998;48.798;15.066;2022-12-29T09:45:33;7.80;;;5.50;;
46266;SDS011;31998;48.798;15.066;2022-12-29T09:48:06;6.87;;;5.17;;
46266;SDS011;31998;48.798;15.066;2022-12-29T09:50:42;7.20;;;4.43;;
46266;SDS011;31998;48.798;15.066;2022-12-29T09:56:17;1.60;;;1.60;;
46266;SDS011;31998;48.798;15.066;2022-12-29T09:58:50;1.57;;;1.33;;
46266;SDS011;31998;48.798;15.066;2022-12-29T10:03:59;3.20;;;1.93;;
46266;SDS011;31998;48.798;15.066;2022-12-29T10:14:35;18.60;;;10.97;;
46266;SDS011;31998;48.798;15.066;2022-12-29T10:23:05;2.40;;;2.30;;
46266;SDS011;31998;48.798;15.066;2022-12-29T10:25:37;2.37;;;2.17;;
46266;SDS011;31998;48.798;15.066;2022-12-29T10:28:06;4.93;;;3.37;;
46266;SDS011;31998;48.798;15.066;2022-12-29T10:30:42;4.33;;;3.50;;
46266;SDS011;31998;48.798;15.066;2022-12-29T10:33:15;9.90;;;4.87;;
46266;SDS011;31998;48.798;15.066;2022-12-29T10:35:44;10.80;;;5.60;;
46266;SDS011;31998;48.798;15.066;2022-12-29T10:38:14;7.90;;;5.63;;
46266;SDS011;31998;48.798;15.066;2022-12-29T10:40:49;11.00;;;5.37;;
46266;SDS011;31998;48.798;15.066;2022-12-29T10:43:21;7.27;;;6.43;;
46266;SDS011;31998;48.798;15.066;2022-12-29T10:45:52;4.93;;;4.53;;
46266;SDS011;31998;48.798;15.066;2022-12-29T10:48:22;7.67;;;5.73;;
46266;SDS011;31998;48.798;15.066;2022-12-29T10:50:58;15.10;;;10.80;;
46266;SDS011;31998;48.798;15.066;2022-12-29T10:53:36;16.87;;;10.70;;
46266;SDS011;31998;48.798;15.066;2022-12-29T10:56:05;18.00;;;11.50;;
46266;SDS011;31998;48.798;15.066;2022-12-29T10:58:41;26.80;;;17.67;;
46266;SDS011;31998;48.798;15.066;2022-12-29T11:01:11;22.83;;;15.20;;
46266;SDS011;31998;48.798;15.066;2022-12-29T11:03:44;25.07;;;14.90;;
46266;SDS011;31998;48.798;15.066;2022-12-29T11:06:27;8.30;;;5.50;;
46266;SDS011;31998;48.798;15.066;2022-12-29T11:08:57;13.57;;;9.47;;
46266;SDS011;31998;48.798;15.066;2022-12-29T11:11:34;12.93;;;9.53;;
46266;SDS011;31998;48.798;15.066;2022-12-29T11:14:07;10.23;;;7.60;;
46266;SDS011;31998;48.798;15.066;2022-12-29T11:16:36;12.00;;;4.93;;
46266;SDS011;31998;48.798;15.066;2022-12-29T11:19:01;19.33;;;6.67;;
46266;SDS011;31998;48.798;15.066;2022-12-29T11:21:31;6.37;;;4.93;;
46266;SDS011;31998;48.798;15.066;2022-12-29T11:24:05;21.83;;;14.40;;
46266;SDS011;31998;48.798;15.066;2022-12-29T11:26:43;29.33;;;16.70;;
46266;SDS011;31998;48.798;15.066;2022-12-29T11:29:16;31.83;;;15.47;;
46266;SDS011;31998;48.798;15.066;2022-12-29T11:31:47;8.77;;;5.97;;
46266;SDS011;31998;48.798;15.066;2022-12-29T11:34:22;17.50;;;5.30;;
46266;SDS011;31998;48.798;15.066;2022-12-29T11:36:52;1.90;;;1.80;;
46266;SDS011;31998;48.798;15.066;2022-12-29T11:39:33;7.23;;;3.20;;
46266;SDS011;31998;48.798;15.066;2022-12-29T11:42:03;6.13;;;4.63;;
46266;SDS011;31998;48.798;15.066;2022-12-29T11:44:41;8.43;;;5.80;;
46266;SDS011;31998;48.798;15.066;2022-12-29T11:47:10;8.20;;;4.40;;
46266;SDS011;31998;48.798;15.066;2022-12-29T11:49:39;6.20;;;5.13;;
46266;SDS011;31998;48.798;15.066;2022-12-29T11:52:04;6.93;;;5.53;;
46266;SDS011;31998;48.798;15.066;2022-12-29T11:54:33;8.00;;;4.20;;
46266;SDS011;31998;48.798;15.066;2022-12-29T11:57:08;10.70;;;4.47;;
46266;SDS011;31998;48.798;15.066;2022-12-29T12:00:09;10.27;;;5.53;;
46266;SDS011;31998;48.798;15.066;2022-12-29T12:02:44;9.70;;;6.57;;
46266;SDS011;31998;48.798;15.066;2022-12-29T12:08:17;3.50;;;2.90;;
46266;SDS011;31998;48.798;15.066;2022-12-29T12:13:39;14.27;;;3.33;;
46266;SDS011;31998;48.798;15.066;2022-12-29T12:16:17;2.00;;;1.77;;
46266;SDS011;31998;48.798;15.066;2022-12-29T12:21:41;5.30;;;3.30;;
46266;SDS011;31998;48.798;15.066;2022-12-29T12:24:21;7.17;;;6.47;;
46266;SDS011;31998;48.798;15.066;2022-12-29T12:27:02;8.90;;;7.53;;
46266;SDS011;31998;48.798;15.066;2022-12-29T12:29:58;3.00;;;1.73;;
46266;SDS011;31998;48.798;15.066;2022-12-29T12:36:26;13.07;;;5.80;;
46266;SDS011;31998;48.798;15.066;2022-12-29T12:39:15;13.13;;;8.40;;
46266;SDS011;31998;48.798;15.066;2022-12-29T12:41:48;3.60;;;3.30;;
46266;SDS011;31998;48.798;15.066;2022-12-29T13:06:59;6.10;;;3.80;;
46266;SDS011;31998;48.798;15.066;2022-12-29T13:18:02;9.70;;;5.27;;
46266;SDS011;31998;48.798;15.066;2022-12-29T13:36:48;1.47;;;1.37;;
46266;SDS011;31998;48.798;15.066;2022-12-29T13:39:31;1.90;;;1.80;;
46266;SDS011;31998;48.798;15.066;2022-12-29T13:42:00;1.60;;;1.50;;
46266;SDS011;31998;48.798;15.066;2022-12-29T13:47:06;1.00;;;0.90;;
46266;SDS011;31998;48.798;15.066;2022-12-29T13:49:45;2.80;;;1.30;;
46266;SDS011;31998;48.798;15.066;2022-12-29T13:58:00;3.53;;;3.23;;
46266;SDS011;31998;48.798;15.066;2022-12-29T14:00:35;7.47;;;3.17;;
46266;SDS011;31998;48.798;15.066;2022-12-29T14:06:30;5.83;;;1.30;;
46266;SDS011;31998;48.798;15.066;2022-12-29T14:08:54;2.70;;;2.10;;
46266;SDS011;31998;48.798;15.066;2022-12-29T14:11:28;10.90;;;2.40;;
46266;SDS011;31998;48.798;15.066;2022-12-29T14:16:47;3.10;;;1.20;;
46266;SDS011;31998;48.798;15.066;2022-12-29T14:19:26;3.17;;;1.63;;
46266;SDS011;31998;48.798;15.066;2022-12-29T14:22:00;1.00;;;1.00;;
46266;SDS011;31998;48.798;15.066;2022-12-29T14:42:30;2.03;;;1.83;;
46266;SDS011;31998;48.798;15.066;2022-12-29T14:45:05;5.80;;;1.17;;
46266;SDS011;31998;48.798;15.066;2022-12-29T14:47:46;1.53;;;1.40;;
46266;SDS011;31998;48.798;15.066;2022-12-29T14:50:14;2.30;;;1.43;;
46266;SDS011;31998;48.798;15.066;2022-12-29T14:52:59;2.00;;;1.57;;
46266;SDS011;31998;48.798;15.066;2022-12-29T15:00:45;33.90;;;15.00;;
46266;SDS011;31998;48.798;15.066;2022-12-29T15:08:21;9.07;;;6.83;;
46266;SDS011;31998;48.798;15.066;2022-12-29T15:10:57;4.50;;;2.60;;
46266;SDS011;31998;48.798;15.066;2022-12-29T15:13:36;3.03;;;2.93;;
46266;SDS011;31998;48.798;15.066;2022-12-29T15:19:23;14.73;;;4.23;;
46266;SDS011;31998;48.798;15.066;2022-12-29T15:21:50;5.93;;;5.43;;
46266;SDS011;31998;48.798;15.066;2022-12-29T15:24:17;5.13;;;4.30;;
46266;SDS011;31998;48.798;15.066;2022-12-29T15:26:44;4.07;;;3.50;;
46266;SDS011;31998;48.798;15.066;2022-12-29T15:32:39;3.07;;;1.57;;
46266;SDS011;31998;48.798;15.066;2022-12-29T15:35:20;1.57;;;1.47;;
46266;SDS011;31998;48.798;15.066;2022-12-29T15:37:49;3.63;;;1.60;;
46266;SDS011;31998;48.798;15.066;2022-12-29T15:40:21;5.67;;;2.03;;
46266;SDS011;31998;48.798;15.066;2022-12-29T15:45:42;2.40;;;2.03;;
46266;SDS011;31998;48.798;15.066;2022-12-29T15:48:14;2.40;;;2.20;;
46266;SDS011;31998;48.798;15.066;2022-12-29T15:50:43;2.27;;;2.17;;
46266;SDS011;31998;48.798;15.066;2022-12-29T15:53:11;2.33;;;1.90;;
46266;SDS011;31998;48.798;15.066;2022-12-29T15:55:42;1.80;;;1.70;;
46266;SDS011;31998;48.798;15.066;2022-12-29T15:58:22;2.33;;;1.57;;
46266;SDS011;31998;48.798;15.066;2022-12-29T16:00:53;2.00;;;1.20;;
46266;SDS011;31998;48.798;15.066;2022-12-29T16:03:25;2.83;;;1.53;;
46266;SDS011;31998;48.798;15.066;2022-12-29T16:06:36;0.70;;;0.70;;
46266;SDS011;31998;48.798;15.066;2022-12-29T16:08:54;6.40;;;1.00;;
46266;SDS011;31998;48.798;15.066;2022-12-29T16:11:22;1.57;;;1.40;;
46266;SDS011;31998;48.798;15.066;2022-12-29T16:14:14;3.67;;;1.10;;
46266;SDS011;31998;48.798;15.066;2022-12-29T16:16:43;1.10;;;1.10;;
46266;SDS011;31998;48.798;15.066;2022-12-29T16:19:17;2.30;;;1.03;;
46266;SDS011;31998;48.798;15.066;2022-12-29T16:21:58;3.47;;;2.13;;
46266;SDS011;31998;48.798;15.066;2022-12-29T16:24:28;3.23;;;1.40;;
46266;SDS011;31998;48.798;15.066;2022-12-29T16:26:59;1.80;;;1.53;;
46266;SDS011;31998;48.798;15.066;2022-12-29T16:29:25;1.33;;;1.33;;
46266;SDS011;31998;48.798;15.066;2022-12-29T16:31:55;1.20;;;1.20;;
46266;SDS011;31998;48.798;15.066;2022-12-29T16:39:25;2.57;;;1.77;;
46266;SDS011;31998;48.798;15.066;2022-12-29T16:41:54;1.33;;;1.20;;
46266;SDS011;31998;48.798;15.066;2022-12-29T16:44:21;1.40;;;1.40;;
46266;SDS011;31998;48.798;15.066;2022-12-29T16:49:30;2.13;;;1.63;;
46266;SDS011;31998;48.798;15.066;2022-12-29T16:51:57;4.10;;;2.57;;
46266;SDS011;31998;48.798;15.066;2022-12-29T16:54:24;3.13;;;2.10;;
46266;SDS011;31998;48.798;15.066;2022-12-29T16:56:53;2.60;;;2.40;;
46266;SDS011;31998;48.798;15.066;2022-12-29T17:02:21;2.70;;;2.60;;
46266;SDS011;31998;48.798;15.066;2022-12-29T17:04:49;1.90;;;1.80;;
46266;SDS011;31998;48.798;15.066;2022-12-29T17:07:20;2.90;;;1.30;;
46266;SDS011;31998;48.798;15.066;2022-12-29T17:09:47;2.17;;;1.10;;
46266;SDS011;31998;48.798;15.066;2022-12-29T17:12:21;1.00;;;1.00;;
46266;SDS011;31998;48.798;15.066;2022-12-29T17:14:58;0.83;;;0.83;;
46266;SDS011;31998;48.798;15.066;2022-12-29T17:17:30;1.90;;;0.80;;
46266;SDS011;31998;48.798;15.066;2022-12-29T17:20:27;1.10;;;1.10;;
46266;SDS011;31998;48.798;15.066;2022-12-29T17:22:55;3.50;;;0.90;;
46266;SDS011;31998;48.798;15.066;2022-12-29T17:25:36;0.70;;;0.70;;
46266;SDS011;31998;48.798;15.066;2022-12-29T17:28:03;3.50;;;0.73;;
46266;SDS011;31998;48.798;15.066;2022-12-29T17:30:35;1.20;;;1.20;;
46266;SDS011;31998;48.798;15.066;2022-12-29T17:33:08;1.10;;;0.80;;
46266;SDS011;31998;48.798;15.066;2022-12-29T17:35:37;0.53;;;0.53;;
46266;SDS011;31998;48.798;15.066;2022-12-29T17:38:08;0.60;;;0.60;;
46266;SDS011;31998;48.798;15.066;2022-12-29T17:40:45;3.90;;;0.83;;